Time;durP1;ratioP1;P1;durP2;ratioP2;P2;SDS_P1;SDS_P2;PMS_P1;PMS_P2;Temp;Humidity;BMP_temperature;BMP_pressure;BME280_temperature;BME280_humidity;BME280_pressure;Samples;Min_cycle;Max_cycle;Signal;HPM_P1;HPM_P2
2022/01/20 00:02:26;;;;;;;1.53;1.07;;;10.10;99.90;;;;;;4976405;29;20211;-93
2022/01/20 00:05:11;;;;;;;1.97;1.20;;;10.00;99.90;;;;;;4970349;28;20208;-93
2022/01/20 00:08:01;;;;;;;12.13;1.60;;;10.00;99.90;;;;;;4974585;28;20203;-92
2022/01/20 00:27:16;;;;;;;2.60;1.00;;;9.70;99.90;;;;;;4960529;28;20207;-94
2022/01/20 00:30:13;;;;;;;2.10;0.90;;;9.70;99.90;;;;;;4975136;28;20302;-93
2022/01/20 00:32:55;;;;;;;1.97;0.90;;;9.70;99.90;;;;;;4977607;28;20223;-94
2022/01/20 00:38:05;;;;;;;2.17;0.80;;;9.60;99.90;;;;;;4952794;29;20227;-93
2022/01/20 00:40:36;;;;;;;1.13;0.90;;;9.60;99.90;;;;;;4955647;29;20212;-93
2022/01/20 00:43:10;;;;;;;2.10;1.00;;;9.60;99.90;;;;;;4946893;29;20744;-93
2022/01/20 00:45:42;;;;;;;1.23;1.00;;;9.50;99.90;;;;;;4941560;29;20583;-93
2022/01/20 00:48:13;;;;;;;0.80;0.80;;;9.50;99.90;;;;;;4949022;28;20341;-92
2022/01/20 00:50:49;;;;;;;0.90;0.80;;;9.50;99.90;;;;;;4956540;28;20196;-92
2022/01/20 00:53:23;;;;;;;1.03;0.93;;;9.50;99.90;;;;;;4953207;29;20220;-93
2022/01/20 00:55:55;;;;;;;1.57;0.77;;;9.50;99.90;;;;;;4954217;29;20243;-92
2022/01/20 00:58:29;;;;;;;1.00;0.60;;;9.50;99.90;;;;;;4944190;29;20209;-93
2022/01/20 01:01:00;;;;;;;2.47;0.90;;;9.50;99.90;;;;;;4954596;29;20212;-93
2022/01/20 01:03:32;;;;;;;0.90;0.70;;;9.50;99.90;;;;;;4960591;28;20204;-93
2022/01/20 01:06:14;;;;;;;0.90;0.70;;;9.40;99.90;;;;;;4960906;28;20203;-92
2022/01/20 01:08:46;;;;;;;0.90;0.70;;;9.40;99.90;;;;;;4934283;28;20200;-92
2022/01/20 01:11:18;;;;;;;2.07;0.77;;;9.40;99.90;;;;;;4957113;28;20215;-92
2022/01/20 01:13:51;;;;;;;5.00;0.90;;;9.40;99.90;;;;;;4947628;29;20686;-94
2022/01/20 01:16:33;;;;;;;2.67;1.00;;;9.40;99.90;;;;;;4941527;29;20267;-96
2022/01/20 01:22:04;;;;;;;1.10;0.70;;;9.30;99.90;;;;;;4947200;29;20272;-94
2022/01/20 01:24:36;;;;;;;1.60;0.87;;;9.30;99.90;;;;;;4954128;29;20276;-94
2022/01/20 01:27:07;;;;;;;1.00;0.80;;;9.30;99.90;;;;;;4946313;29;20239;-93
2022/01/20 01:29:59;;;;;;;1.40;1.03;;;9.30;99.90;;;;;;4946903;29;20579;-93
2022/01/20 01:32:39;;;;;;;2.30;1.00;;;9.40;99.90;;;;;;4948146;29;20236;-93
2022/01/20 01:35:11;;;;;;;2.63;1.17;;;9.40;99.90;;;;;;4935282;29;20246;-93
2022/01/20 01:40:31;;;;;;;1.87;1.10;;;9.40;99.90;;;;;;4972789;29;20212;-93
2022/01/20 01:43:11;;;;;;;1.57;1.20;;;9.30;99.90;;;;;;4963365;28;20222;-93
2022/01/20 01:45:48;;;;;;;1.67;1.40;;;9.30;99.90;;;;;;4955757;29;20215;-93
2022/01/20 01:48:21;;;;;;;1.30;0.97;;;9.30;99.90;;;;;;4972445;29;20271;-93
2022/01/20 01:50:55;;;;;;;1.70;1.20;;;9.30;99.90;;;;;;4957053;29;20208;-93
2022/01/20 01:53:28;;;;;;;1.43;1.20;;;9.30;99.90;;;;;;4972648;28;20231;-93
2022/01/20 01:55:59;;;;;;;2.17;1.07;;;9.30;99.90;;;;;;4973579;29;20291;-93
2022/01/20 02:01:08;;;;;;;1.27;1.10;;;9.30;99.90;;;;;;5528051;23;20217;-93
2022/01/20 02:06:32;;;;;;;1.20;1.10;;;9.20;99.90;;;;;;4766791;22;10001505;-94
2022/01/20 02:09:18;;;;;;;2.00;1.33;;;9.30;99.90;;;;;;5032297;28;20205;-92
2022/01/20 02:20:19;;;;;;;1.20;1.00;;;9.30;99.90;;;;;;5035129;28;20190;-93
2022/01/20 02:22:51;;;;;;;2.20;1.30;;;9.30;99.90;;;;;;5035198;28;20197;-92
2022/01/20 02:25:23;;;;;;;2.10;1.43;;;9.30;99.90;;;;;;5034588;28;20295;-92
2022/01/20 02:27:55;;;;;;;1.57;1.07;;;9.30;99.90;;;;;;5034132;28;20200;-91
2022/01/20 02:30:28;;;;;;;2.03;0.77;;;9.30;99.90;;;;;;5035447;28;20186;-92
2022/01/20 02:33:02;;;;;;;2.93;0.90;;;9.40;99.90;;;;;;5034690;28;20547;-92
2022/01/20 02:35:41;;;;;;;1.63;0.90;;;9.40;99.90;;;;;;5017231;28;20194;-92
2022/01/20 02:38:19;;;;;;;1.20;1.03;;;9.40;99.90;;;;;;5031058;28;20216;-92
2022/01/20 02:46:29;;;;;;;3.47;1.10;;;9.40;99.90;;;;;;5034238;28;20202;-94
2022/01/20 02:49:02;;;;;;;1.63;1.23;;;9.40;99.90;;;;;;5034715;28;20703;-93
2022/01/20 02:51:36;;;;;;;1.67;1.27;;;9.40;99.90;;;;;;5021855;28;20209;-93
2022/01/20 02:54:11;;;;;;;2.50;1.33;;;9.40;99.90;;;;;;5031079;28;20244;-93
2022/01/20 02:56:43;;;;;;;3.50;1.60;;;9.30;99.90;;;;;;5019568;28;20205;-93
2022/01/20 03:01:49;;;;;;;1.57;1.30;;;9.30;99.90;;;;;;5144189;23;20233;-92
2022/01/20 03:04:26;;;;;;;1.90;1.30;;;9.20;99.90;;;;;;5025630;28;20224;-94
2022/01/20 03:07:00;;;;;;;1.67;1.40;;;9.30;99.90;;;;;;5030540;28;20284;-93
2022/01/20 03:09:31;;;;;;;1.60;1.20;;;9.30;99.90;;;;;;5029233;28;20213;-90
2022/01/20 03:12:02;;;;;;;1.63;1.20;;;9.30;99.90;;;;;;5023825;28;20624;-94
2022/01/20 03:14:33;;;;;;;5.60;1.23;;;9.20;99.90;;;;;;5027206;28;20642;-94
2022/01/20 03:17:05;;;;;;;2.37;1.10;;;9.20;99.90;;;;;;5035079;28;20193;-92
2022/01/20 03:19:36;;;;;;;4.07;1.00;;;9.20;99.90;;;;;;5040352;28;20269;-94
2022/01/20 03:22:09;;;;;;;1.93;1.23;;;9.20;99.90;;;;;;5040751;28;20217;-91
2022/01/20 03:24:41;;;;;;;2.57;1.30;;;9.20;99.90;;;;;;5040130;28;20204;-94
2022/01/20 03:27:13;;;;;;;2.40;1.10;;;9.20;99.90;;;;;;5021887;28;20208;-93
2022/01/20 03:29:45;;;;;;;1.30;1.17;;;9.20;99.90;;;;;;5035690;28;20201;-93
2022/01/20 03:32:16;;;;;;;3.53;1.50;;;9.20;99.90;;;;;;5033647;28;20224;-94
2022/01/20 03:34:48;;;;;;;2.10;1.50;;;9.10;99.90;;;;;;5033769;28;20701;-94
2022/01/20 03:37:21;;;;;;;1.87;1.50;;;9.10;99.90;;;;;;5032543;28;20209;-94
2022/01/20 03:39:52;;;;;;;1.50;1.30;;;9.10;99.90;;;;;;5016038;28;20206;-93
2022/01/20 03:42:24;;;;;;;1.33;1.10;;;9.10;99.90;;;;;;5033521;28;20205;-93
2022/01/20 03:44:56;;;;;;;1.60;1.00;;;9.20;99.90;;;;;;5033064;28;20194;-90
2022/01/20 03:47:27;;;;;;;1.53;0.93;;;9.10;99.90;;;;;;5032583;28;20223;-93
2022/01/20 03:50:09;;;;;;;2.20;1.00;;;9.20;99.90;;;;;;5031494;28;20635;-94
2022/01/20 03:52:42;;;;;;;1.93;1.10;;;9.20;99.90;;;;;;5030266;28;20229;-94
2022/01/20 03:55:14;;;;;;;4.50;1.10;;;9.20;99.90;;;;;;5030965;28;20233;-94
2022/01/20 03:57:45;;;;;;;2.07;0.90;;;9.20;99.90;;;;;;5011232;28;20256;-94
2022/01/20 04:00:17;;;;;;;1.40;0.97;;;9.30;99.90;;;;;;5018720;28;20225;-93
2022/01/20 04:02:49;;;;;;;2.33;1.10;;;9.30;99.90;;;;;;5032588;28;20241;-94
2022/01/20 04:05:21;;;;;;;3.27;1.67;;;9.30;99.90;;;;;;5032893;28;20304;-94
2022/01/20 04:07:54;;;;;;;3.13;1.77;;;9.30;99.90;;;;;;5026274;28;20201;-95
2022/01/20 04:10:26;;;;;;;4.70;2.30;;;9.30;99.90;;;;;;5032472;28;20197;-94
2022/01/20 04:12:57;;;;;;;3.17;2.00;;;9.30;99.90;;;;;;5514052;23;20285;-92
2022/01/20 04:15:37;;;;;;;3.47;2.03;;;9.30;99.90;;;;;;5025931;28;20304;-91
2022/01/20 04:18:08;;;;;;;3.00;2.13;;;9.30;99.90;;;;;;5032245;28;20217;-93
2022/01/20 04:20:40;;;;;;;6.33;2.10;;;9.20;99.90;;;;;;5030417;28;20249;-93
2022/01/20 04:23:13;;;;;;;2.60;1.97;;;9.20;99.90;;;;;;5031559;28;20280;-93
2022/01/20 04:25:44;;;;;;;3.20;2.17;;;9.20;99.90;;;;;;5025525;28;20259;-93
2022/01/20 04:28:15;;;;;;;5.73;3.80;;;9.20;99.90;;;;;;5030726;28;20525;-93
2022/01/20 04:30:47;;;;;;;4.57;2.70;;;9.20;99.90;;;;;;5026342;28;20239;-91
2022/01/20 04:33:19;;;;;;;2.53;2.10;;;9.20;99.90;;;;;;5026475;28;20728;-92
2022/01/20 04:35:50;;;;;;;4.03;2.20;;;9.20;99.90;;;;;;5008542;28;20714;-93
2022/01/20 04:38:27;;;;;;;2.07;1.87;;;9.20;99.90;;;;;;5031837;28;20276;-94
2022/01/20 04:40:59;;;;;;;3.77;2.40;;;9.20;99.90;;;;;;5031792;28;20205;-94
2022/01/20 04:43:31;;;;;;;3.67;2.00;;;9.20;99.90;;;;;;5029604;28;20202;-94
2022/01/20 04:46:09;;;;;;;3.00;1.77;;;9.20;99.90;;;;;;5030473;28;20206;-94
2022/01/20 04:48:59;;;;;;;2.87;1.77;;;9.20;99.90;;;;;;5029752;28;20225;-94
2022/01/20 04:57:16;;;;;;;2.17;1.53;;;9.00;99.90;;;;;;5015250;28;20190;-94
2022/01/20 04:59:50;;;;;;;3.50;1.07;;;9.00;99.90;;;;;;5021423;28;20196;-94
2022/01/20 05:02:24;;;;;;;1.50;1.30;;;9.00;99.90;;;;;;5034942;28;20216;-92
2022/01/20 05:04:55;;;;;;;1.83;0.97;;;9.00;99.90;;;;;;5017717;28;20229;-94
2022/01/20 05:07:28;;;;;;;1.33;1.20;;;9.00;99.90;;;;;;5017408;28;20201;-94
2022/01/20 05:10:01;;;;;;;2.17;1.23;;;9.00;99.90;;;;;;4998225;28;20214;-94
2022/01/20 05:12:48;;;;;;;1.10;1.00;;;9.00;99.90;;;;;;4998332;28;20256;-94
2022/01/20 05:15:20;;;;;;;1.30;1.00;;;9.00;99.90;;;;;;4983785;28;20668;-94
2022/01/20 05:17:51;;;;;;;2.30;1.20;;;9.00;99.90;;;;;;4997999;28;20705;-93
2022/01/20 05:20:24;;;;;;;1.60;1.00;;;9.00;99.90;;;;;;4998650;28;20217;-94
2022/01/20 05:22:55;;;;;;;2.73;1.40;;;9.00;99.90;;;;;;4997783;28;20210;-94
2022/01/20 05:25:28;;;;;;;1.97;1.20;;;8.90;99.90;;;;;;4999754;28;20293;-94
2022/01/20 05:27:58;;;;;;;2.97;1.17;;;9.00;99.90;;;;;;4999211;28;20222;-93
2022/01/20 05:30:29;;;;;;;1.90;1.20;;;9.00;99.90;;;;;;4999708;28;20231;-93
2022/01/20 05:33:01;;;;;;;1.97;1.20;;;8.90;99.90;;;;;;5008774;28;20186;-93
2022/01/20 05:35:32;;;;;;;3.10;1.30;;;8.90;99.90;;;;;;5018065;28;20218;-93
2022/01/20 05:38:05;;;;;;;1.80;1.20;;;8.90;99.90;;;;;;5026836;28;20193;-93
2022/01/20 05:40:38;;;;;;;4.10;1.20;;;9.00;99.90;;;;;;5050147;28;20216;-90
2022/01/20 05:43:09;;;;;;;1.80;1.17;;;9.00;99.90;;;;;;5051468;28;20216;-94
2022/01/20 05:45:40;;;;;;;2.47;1.30;;;8.90;99.90;;;;;;5037610;28;20197;-92
2022/01/20 05:48:15;;;;;;;1.73;1.37;;;8.90;99.90;;;;;;5023274;28;20237;-93
2022/01/20 05:50:46;;;;;;;1.53;1.20;;;8.90;99.90;;;;;;5040426;28;20203;-91
2022/01/20 05:53:17;;;;;;;1.80;1.20;;;8.90;99.90;;;;;;5055642;28;20229;-93
2022/01/20 05:55:50;;;;;;;1.67;1.30;;;8.90;99.90;;;;;;5053477;28;20232;-94
2022/01/20 05:58:21;;;;;;;2.37;0.97;;;8.90;99.90;;;;;;5052326;28;20216;-93
2022/01/20 06:00:52;;;;;;;2.27;1.10;;;8.90;99.90;;;;;;5052750;28;20201;-93
2022/01/20 06:03:39;;;;;;;1.63;1.27;;;9.00;99.90;;;;;;5052505;28;20213;-92
2022/01/20 06:06:13;;;;;;;1.43;1.00;;;9.00;99.90;;;;;;5047417;28;20211;-91
2022/01/20 06:08:44;;;;;;;2.83;1.30;;;9.00;99.90;;;;;;5031507;28;20193;-94
2022/01/20 06:11:18;;;;;;;1.83;0.93;;;9.00;99.90;;;;;;5016736;28;20636;-92
2022/01/20 06:13:49;;;;;;;1.53;1.30;;;9.10;99.90;;;;;;5017112;28;20565;-92
2022/01/20 06:16:20;;;;;;;1.67;1.30;;;9.10;99.90;;;;;;5020223;28;20268;-93
2022/01/20 06:18:52;;;;;;;1.57;1.20;;;9.10;99.90;;;;;;5017796;28;20229;-92
2022/01/20 06:21:24;;;;;;;1.77;1.13;;;9.10;99.90;;;;;;5019654;28;20201;-93
2022/01/20 06:23:54;;;;;;;2.60;1.40;;;9.10;99.90;;;;;;5018403;28;20288;-93
2022/01/20 06:26:28;;;;;;;1.87;1.60;;;9.10;99.90;;;;;;5018982;28;20209;-93
2022/01/20 06:28:59;;;;;;;3.13;1.63;;;9.10;99.90;;;;;;5016933;28;20214;-93
2022/01/20 06:31:30;;;;;;;2.93;1.30;;;9.00;99.90;;;;;;5029583;28;20279;-93
2022/01/20 06:34:01;;;;;;;3.43;1.70;;;9.10;99.90;;;;;;5019422;28;20213;-94
2022/01/20 06:36:31;;;;;;;2.07;1.43;;;9.10;99.90;;;;;;5017051;28;20233;-94
2022/01/20 06:39:02;;;;;;;1.90;1.40;;;9.10;99.90;;;;;;5018690;28;20237;-94
2022/01/20 06:41:38;;;;;;;2.80;1.10;;;9.10;99.90;;;;;;5022180;28;20217;-94
2022/01/20 06:44:09;;;;;;;2.13;1.30;;;9.10;99.90;;;;;;5019665;28;20263;-93
2022/01/20 06:46:40;;;;;;;1.40;0.90;;;9.10;99.90;;;;;;5018216;28;20310;-94
2022/01/20 06:49:11;;;;;;;1.37;1.00;;;9.10;99.90;;;;;;5016461;28;20225;-93
2022/01/20 06:51:42;;;;;;;1.13;0.90;;;9.10;99.90;;;;;;5015895;28;20264;-92
2022/01/20 06:54:14;;;;;;;2.13;0.90;;;9.20;99.90;;;;;;5019968;28;20206;-93
2022/01/20 06:56:47;;;;;;;1.23;0.67;;;9.20;99.90;;;;;;5019035;28;20689;-94
2022/01/20 06:59:20;;;;;;;1.03;0.70;;;9.30;99.90;;;;;;5020276;28;20581;-93
2022/01/20 07:01:51;;;;;;;1.60;0.60;;;9.30;99.90;;;;;;5022527;28;20229;-91
2022/01/20 07:04:26;;;;;;;3.80;0.90;;;9.30;99.90;;;;;;5019750;28;20236;-92
2022/01/20 07:06:59;;;;;;;2.50;0.70;;;9.20;99.90;;;;;;4986322;28;20223;-93
2022/01/20 07:09:30;;;;;;;1.03;0.63;;;9.20;99.90;;;;;;5019527;28;20213;-91
2022/01/20 07:12:03;;;;;;;2.07;0.53;;;9.10;99.90;;;;;;5022462;28;20233;-92
2022/01/20 07:14:34;;;;;;;2.27;0.87;;;9.10;99.90;;;;;;5019599;28;20259;-92
2022/01/20 07:17:05;;;;;;;0.90;0.77;;;9.10;99.90;;;;;;5000996;28;20308;-94
2022/01/20 07:19:37;;;;;;;3.27;0.87;;;9.00;99.90;;;;;;5033368;28;20673;-92
2022/01/20 07:22:08;;;;;;;1.77;0.83;;;9.00;99.90;;;;;;5030843;28;20206;-92
2022/01/20 07:24:39;;;;;;;0.80;0.80;;;9.00;99.90;;;;;;5024798;28;20213;-92
2022/01/20 07:27:11;;;;;;;2.33;1.00;;;9.00;99.90;;;;;;5030657;28;20669;-93
2022/01/20 07:29:43;;;;;;;1.67;0.90;;;9.00;99.90;;;;;;5036567;28;20206;-92
2022/01/20 07:32:16;;;;;;;2.80;1.03;;;9.00;99.90;;;;;;5024117;28;20230;-92
2022/01/20 07:34:48;;;;;;;5.90;1.20;;;9.00;99.90;;;;;;5020648;28;20213;-91
2022/01/20 07:37:19;;;;;;;2.03;1.10;;;9.00;99.90;;;;;;5019871;28;20268;-92
2022/01/20 07:39:50;;;;;;;2.40;0.97;;;9.00;99.90;;;;;;5039157;28;20263;-94
2022/01/20 07:42:23;;;;;;;3.43;1.40;;;9.00;99.90;;;;;;5041655;28;20228;-94
2022/01/20 07:44:55;;;;;;;2.13;1.30;;;9.00;99.90;;;;;;5040025;28;20205;-94
2022/01/20 07:47:26;;;;;;;1.63;1.20;;;9.00;99.90;;;;;;5039717;28;20247;-92
2022/01/20 07:49:57;;;;;;;1.77;1.40;;;9.00;99.90;;;;;;5048138;28;20197;-93
2022/01/20 07:52:28;;;;;;;1.43;1.17;;;8.90;99.90;;;;;;5059507;28;20231;-92
2022/01/20 07:54:59;;;;;;;1.67;1.30;;;9.00;99.90;;;;;;5058893;28;20196;-91
2022/01/20 07:57:31;;;;;;;2.27;1.27;;;9.00;99.90;;;;;;5027781;28;20306;-93
2022/01/20 08:00:03;;;;;;;1.67;1.00;;;9.00;99.90;;;;;;5040289;28;20205;-92
2022/01/20 08:02:36;;;;;;;1.20;1.10;;;9.00;99.90;;;;;;5021837;28;20206;-92
2022/01/20 08:05:08;;;;;;;2.17;1.23;;;9.00;99.90;;;;;;5018791;28;20716;-92
2022/01/20 08:07:39;;;;;;;4.40;1.40;;;9.10;99.90;;;;;;5020301;28;20214;-93
2022/01/20 08:10:12;;;;;;;2.50;1.00;;;9.10;99.90;;;;;;5040729;28;20212;-93
2022/01/20 08:12:45;;;;;;;2.10;0.90;;;9.10;99.90;;;;;;5043453;28;20213;-93
2022/01/20 08:15:16;;;;;;;2.63;1.10;;;9.10;99.90;;;;;;5021083;28;20589;-93
2022/01/20 08:17:47;;;;;;;2.33;1.30;;;9.20;99.90;;;;;;5037655;28;20233;-93
2022/01/20 08:20:19;;;;;;;1.43;1.00;;;9.20;99.90;;;;;;5037791;28;20232;-93
2022/01/20 08:22:54;;;;;;;3.50;1.47;;;9.20;99.90;;;;;;5037690;28;20204;-93
2022/01/20 08:25:26;;;;;;;1.33;1.23;;;9.20;99.90;;;;;;5020832;28;20216;-92
2022/01/20 08:27:58;;;;;;;1.73;1.27;;;9.20;99.90;;;;;;5036424;28;20212;-92
2022/01/20 08:30:38;;;;;;;1.30;1.20;;;9.20;99.90;;;;;;5036857;28;20633;-92
2022/01/20 08:33:09;;;;;;;1.30;1.20;;;9.20;99.90;;;;;;5037385;28;20208;-94
2022/01/20 08:35:40;;;;;;;4.03;1.60;;;9.20;99.90;;;;;;5037116;28;20204;-93
2022/01/20 08:38:11;;;;;;;1.70;1.40;;;9.20;99.90;;;;;;5036484;28;20201;-93
2022/01/20 08:40:43;;;;;;;2.20;1.30;;;9.20;99.90;;;;;;5037517;28;20209;-93
2022/01/20 08:43:15;;;;;;;1.50;1.20;;;9.20;99.90;;;;;;5036770;28;20262;-94
2022/01/20 08:45:47;;;;;;;1.80;1.10;;;9.30;99.90;;;;;;5009426;28;20300;-92
2022/01/20 08:48:18;;;;;;;1.40;1.27;;;9.30;99.90;;;;;;5015867;28;20228;-92
2022/01/20 08:50:49;;;;;;;1.83;1.10;;;9.30;99.90;;;;;;5000244;28;20216;-92
2022/01/20 08:53:20;;;;;;;1.50;1.40;;;9.30;99.90;;;;;;5016646;28;20256;-92
2022/01/20 08:55:51;;;;;;;1.37;1.27;;;9.30;99.90;;;;;;5018776;28;20248;-92
2022/01/20 08:58:25;;;;;;;1.27;1.10;;;9.30;99.90;;;;;;5024625;28;20210;-93
2022/01/20 09:00:59;;;;;;;1.20;1.10;;;9.30;99.90;;;;;;5025577;28;20271;-93
2022/01/20 09:03:32;;;;;;;1.50;1.30;;;9.30;99.90;;;;;;5022016;28;20284;-94
2022/01/20 09:06:06;;;;;;;3.07;1.17;;;9.40;99.90;;;;;;5016615;28;20237;-93
2022/01/20 09:08:37;;;;;;;1.30;1.20;;;9.40;99.90;;;;;;4998381;28;20233;-93
2022/01/20 09:11:18;;;;;;;1.20;1.10;;;9.40;99.90;;;;;;5016785;28;20260;-93
2022/01/20 09:16:40;;;;;;;1.27;0.90;;;9.50;99.90;;;;;;5014677;28;20694;-92
2022/01/20 09:19:12;;;;;;;1.07;0.90;;;9.50;99.90;;;;;;5017354;28;20201;-92
2022/01/20 09:21:44;;;;;;;0.77;0.77;;;9.60;99.90;;;;;;5016198;28;20213;-92
2022/01/20 09:24:16;;;;;;;0.83;0.83;;;9.60;99.90;;;;;;5016698;28;20584;-92
2022/01/20 09:26:49;;;;;;;0.73;0.70;;;9.60;99.90;;;;;;5015375;28;20733;-93
2022/01/20 09:29:23;;;;;;;2.57;0.90;;;9.60;99.90;;;;;;5016762;28;20377;-92
2022/01/20 09:31:54;;;;;;;1.40;0.60;;;9.60;99.90;;;;;;5016248;28;20332;-93
2022/01/20 09:34:26;;;;;;;1.00;0.90;;;9.60;99.90;;;;;;5018925;28;20205;-92
2022/01/20 09:36:57;;;;;;;0.83;0.83;;;9.60;99.90;;;;;;5015217;28;20265;-92
2022/01/20 09:39:28;;;;;;;0.80;0.70;;;9.50;99.90;;;;;;5016111;28;20288;-92
2022/01/20 09:42:00;;;;;;;1.10;0.90;;;9.50;99.90;;;;;;5016171;28;20568;-93
2022/01/20 09:44:34;;;;;;;2.30;1.00;;;9.50;99.90;;;;;;5016423;28;20217;-94
2022/01/20 09:47:05;;;;;;;4.60;4.23;;;9.50;99.90;;;;;;5014768;28;20233;-92
2022/01/20 09:49:37;;;;;;;1.33;1.20;;;9.50;99.90;;;;;;5016740;28;20233;-92
2022/01/20 09:52:09;;;;;;;1.20;0.80;;;9.50;99.90;;;;;;5020469;28;20210;-93
2022/01/20 09:54:41;;;;;;;0.97;0.60;;;9.50;99.90;;;;;;5016381;28;20268;-92
2022/01/20 09:57:11;;;;;;;1.80;1.10;;;9.60;99.90;;;;;;5016084;28;20261;-92
2022/01/20 09:59:45;;;;;;;1.87;1.77;;;9.60;99.90;;;;;;5016636;28;20236;-93
2022/01/20 10:02:19;;;;;;;2.27;2.17;;;9.70;99.90;;;;;;5002177;28;20231;-94
2022/01/20 10:04:52;;;;;;;0.67;0.60;;;9.70;99.90;;;;;;5036588;28;20240;-94
2022/01/20 10:07:23;;;;;;;4.50;2.70;;;9.70;99.90;;;;;;5036242;28;20193;-93
2022/01/20 10:09:54;;;;;;;1.47;1.37;;;9.70;99.90;;;;;;5027442;28;20213;-93
2022/01/20 10:12:30;;;;;;;1.93;1.03;;;9.60;99.90;;;;;;5032622;28;20208;-93
2022/01/20 10:15:07;;;;;;;2.17;0.80;;;9.60;99.90;;;;;;5022401;28;20272;-92
2022/01/20 10:17:39;;;;;;;0.70;0.70;;;9.70;99.90;;;;;;5016486;28;20236;-94
2022/01/20 10:20:11;;;;;;;3.20;2.93;;;9.70;99.90;;;;;;5018605;28;20657;-93
2022/01/20 10:22:43;;;;;;;1.00;1.00;;;9.70;99.90;;;;;;4999378;28;20289;-93
2022/01/20 10:25:17;;;;;;;4.80;4.40;;;9.80;99.90;;;;;;5016057;28;20206;-93
2022/01/20 10:27:51;;;;;;;0.80;0.80;;;9.80;99.90;;;;;;5014918;28;20201;-93
2022/01/20 10:30:27;;;;;;;1.47;1.37;;;9.80;99.90;;;;;;5016134;28;20205;-94
2022/01/20 10:33:00;;;;;;;0.60;0.60;;;9.90;99.90;;;;;;5015276;28;20208;-93
2022/01/20 10:35:35;;;;;;;0.70;0.70;;;9.80;99.90;;;;;;5015225;28;20210;-92
2022/01/20 10:38:12;;;;;;;26.50;6.43;;;9.80;99.90;;;;;;5016797;28;20240;-93
2022/01/20 10:40:51;;;;;;;0.83;0.70;;;9.90;99.90;;;;;;5016436;28;20257;-93
2022/01/20 10:43:24;;;;;;;0.67;0.67;;;9.90;99.90;;;;;;5020175;28;20224;-94
2022/01/20 10:46:06;;;;;;;0.70;0.70;;;9.90;99.90;;;;;;5015923;28;20567;-94
2022/01/20 10:48:37;;;;;;;0.80;0.80;;;9.90;99.90;;;;;;5015269;28;20215;-93
2022/01/20 10:51:17;;;;;;;0.90;0.90;;;9.90;99.90;;;;;;5016344;28;20541;-93
2022/01/20 10:54:00;;;;;;;1.10;1.00;;;9.90;99.90;;;;;;5015134;28;20209;-93
2022/01/20 10:56:31;;;;;;;1.37;0.80;;;9.90;99.90;;;;;;5014425;28;20249;-93
2022/01/20 10:59:08;;;;;;;0.80;0.80;;;9.90;99.90;;;;;;5015445;28;20607;-93
2022/01/20 11:01:42;;;;;;;1.03;1.00;;;10.00;99.90;;;;;;5014873;28;20220;-92
2022/01/20 11:04:18;;;;;;;0.60;0.60;;;10.00;99.90;;;;;;5015456;28;20221;-93
2022/01/20 11:06:54;;;;;;;0.73;0.73;;;10.00;99.90;;;;;;5014694;28;20261;-93
2022/01/20 11:09:26;;;;;;;0.97;0.90;;;10.00;99.90;;;;;;5015250;28;20673;-93
2022/01/20 11:11:58;;;;;;;1.13;1.03;;;10.00;99.90;;;;;;5015412;28;20202;-93
2022/01/20 11:14:30;;;;;;;0.80;0.80;;;10.00;99.90;;;;;;5015167;28;20297;-94
2022/01/20 11:17:04;;;;;;;1.10;1.10;;;10.00;99.90;;;;;;5014573;28;20700;-88
2022/01/20 11:19:39;;;;;;;0.80;0.70;;;10.10;99.90;;;;;;5015189;28;20233;-92
2022/01/20 11:22:13;;;;;;;1.30;1.13;;;10.10;99.90;;;;;;5015658;28;20251;-93
2022/01/20 11:24:45;;;;;;;1.33;1.00;;;10.10;99.90;;;;;;5014710;28;20205;-94
2022/01/20 11:27:17;;;;;;;1.10;0.90;;;10.10;99.90;;;;;;4997869;28;20201;-92
2022/01/20 11:29:50;;;;;;;0.93;0.87;;;10.10;99.90;;;;;;5010695;28;20233;-92
2022/01/20 11:32:25;;;;;;;1.10;1.00;;;10.20;99.90;;;;;;4999552;28;20656;-93
2022/01/20 11:35:02;;;;;;;6.40;1.13;;;10.20;99.90;;;;;;5016321;28;20237;-93
2022/01/20 11:37:35;;;;;;;2.23;1.00;;;10.20;99.90;;;;;;4999033;28;20300;-92
2022/01/20 11:40:15;;;;;;;1.17;1.07;;;10.20;99.90;;;;;;5018012;28;20216;-92
2022/01/20 11:42:58;;;;;;;1.20;1.10;;;10.20;99.90;;;;;;5022146;28;20201;-92
2022/01/20 11:45:33;;;;;;;1.70;1.60;;;10.30;99.90;;;;;;5019458;28;20205;-93
2022/01/20 11:48:17;;;;;;;1.43;1.17;;;10.30;99.90;;;;;;5018857;28;20313;-93
2022/01/20 11:50:51;;;;;;;1.27;1.10;;;10.30;99.90;;;;;;5019285;28;20562;-92
2022/01/20 11:53:23;;;;;;;1.60;1.40;;;10.30;99.90;;;;;;5019002;28;20674;-92
2022/01/20 11:55:56;;;;;;;1.43;1.30;;;10.40;99.90;;;;;;5019619;28;20201;-93
2022/01/20 11:58:29;;;;;;;1.30;1.20;;;10.40;99.90;;;;;;5010624;28;20373;-94
2022/01/20 12:01:02;;;;;;;3.57;3.00;;;10.40;99.90;;;;;;5036133;28;20205;-91
2022/01/20 12:03:38;;;;;;;3.23;2.60;;;10.40;99.90;;;;;;5030050;28;20257;-92
2022/01/20 12:06:14;;;;;;;2.73;1.20;;;10.40;99.90;;;;;;5027906;28;20213;-93
2022/01/20 12:08:55;;;;;;;1.30;1.20;;;10.40;99.90;;;;;;5033129;28;20242;-92
2022/01/20 12:11:37;;;;;;;1.13;0.93;;;10.40;99.90;;;;;;5032699;28;20606;-94
2022/01/20 12:14:10;;;;;;;2.90;1.60;;;10.50;99.90;;;;;;5022937;28;20274;-94
2022/01/20 12:16:42;;;;;;;1.53;1.43;;;10.50;99.90;;;;;;5036517;28;20205;-92
2022/01/20 12:19:16;;;;;;;2.13;1.93;;;10.50;99.90;;;;;;5039180;28;20260;-93
2022/01/20 12:21:50;;;;;;;3.07;2.87;;;10.50;99.90;;;;;;5039479;28;20204;-90
2022/01/20 12:24:21;;;;;;;2.87;2.67;;;10.50;99.90;;;;;;5083277;23;20193;-89
2022/01/20 12:26:52;;;;;;;1.20;1.10;;;10.60;99.90;;;;;;5037766;28;20209;-94
2022/01/20 12:29:34;;;;;;;0.87;0.83;;;10.60;99.90;;;;;;5038918;28;20228;-92
2022/01/20 12:32:13;;;;;;;3.20;2.23;;;10.60;99.90;;;;;;5038638;28;20206;-89
2022/01/20 12:34:57;;;;;;;1.20;1.10;;;10.60;99.90;;;;;;5036313;28;20197;-92
2022/01/20 12:37:38;;;;;;;1.20;1.10;;;10.60;99.90;;;;;;5034612;28;20213;-93
2022/01/20 12:40:20;;;;;;;1.80;1.70;;;10.70;99.90;;;;;;5015482;28;20202;-92
2022/01/20 12:42:52;;;;;;;1.63;1.53;;;10.70;99.90;;;;;;5017347;28;20233;-92
2022/01/20 12:48:15;;;;;;;1.13;1.00;;;10.70;99.90;;;;;;5035682;28;20203;-91
2022/01/20 12:50:59;;;;;;;2.03;1.00;;;10.70;99.90;;;;;;5036343;28;20236;-88
2022/01/20 12:53:36;;;;;;;0.93;0.83;;;10.70;99.90;;;;;;5035264;28;20206;-92
2022/01/20 12:56:09;;;;;;;3.60;1.87;;;10.80;99.90;;;;;;5035782;28;20217;-92
2022/01/20 12:58:48;;;;;;;4.50;2.90;;;10.80;99.90;;;;;;5033421;28;20225;-92
2022/01/20 13:01:20;;;;;;;1.50;1.40;;;10.80;99.90;;;;;;5033765;28;20217;-92
2022/01/20 13:03:52;;;;;;;1.30;0.83;;;10.80;99.90;;;;;;5029709;28;20205;-92
2022/01/20 13:06:29;;;;;;;0.70;0.70;;;10.80;99.90;;;;;;5027294;28;20212;-92
2022/01/20 13:09:03;;;;;;;1.10;0.87;;;10.80;99.90;;;;;;5026334;28;20229;-92
2022/01/20 13:11:40;;;;;;;2.67;1.93;;;10.90;99.90;;;;;;5023652;28;20670;-92
2022/01/20 13:14:11;;;;;;;5.60;2.13;;;10.90;99.90;;;;;;5023832;28;20209;-93
2022/01/20 13:16:53;;;;;;;0.90;0.70;;;10.90;99.90;;;;;;5021075;28;20669;-93
2022/01/20 13:19:35;;;;;;;0.80;0.80;;;10.90;99.90;;;;;;5020034;28;20229;-93
2022/01/20 13:22:20;;;;;;;1.00;0.67;;;10.80;99.90;;;;;;5021036;28;20572;-93
2022/01/20 13:24:53;;;;;;;1.13;0.67;;;10.80;99.90;;;;;;5020477;28;20316;-93
2022/01/20 13:27:24;;;;;;;0.97;0.70;;;10.80;99.90;;;;;;5019316;28;20248;-93
2022/01/20 13:29:55;;;;;;;2.93;1.90;;;10.80;99.90;;;;;;5019991;28;20233;-93
2022/01/20 13:32:26;;;;;;;0.73;0.73;;;10.90;99.90;;;;;;5019784;28;20575;-93
2022/01/20 13:34:59;;;;;;;1.23;0.80;;;10.80;99.90;;;;;;5019496;28;20215;-92
2022/01/20 13:37:31;;;;;;;1.37;0.90;;;10.90;99.90;;;;;;5018552;28;20214;-92
2022/01/20 13:40:06;;;;;;;1.50;1.43;;;10.90;99.90;;;;;;4998652;28;20318;-92
2022/01/20 13:42:46;;;;;;;0.70;0.60;;;10.90;99.90;;;;;;4999243;28;20686;-93
2022/01/20 13:45:18;;;;;;;1.53;0.80;;;10.90;99.90;;;;;;5005378;28;20700;-93
2022/01/20 13:47:51;;;;;;;1.23;1.13;;;10.90;99.90;;;;;;5017153;28;20202;-92
2022/01/20 13:50:24;;;;;;;1.67;0.80;;;10.90;99.90;;;;;;5020779;28;20213;-92
2022/01/20 13:52:58;;;;;;;0.90;0.90;;;10.90;99.90;;;;;;5018238;28;20300;-91
2022/01/20 13:55:32;;;;;;;32.07;6.07;;;10.90;99.90;;;;;;5018154;28;20264;-93
2022/01/20 13:58:03;;;;;;;1.33;1.23;;;11.00;99.90;;;;;;5016722;28;20209;-93
2022/01/20 14:00:38;;;;;;;1.30;1.20;;;10.90;99.90;;;;;;5017145;28;20244;-92
2022/01/20 14:03:10;;;;;;;1.23;0.90;;;10.90;99.90;;;;;;5016276;28;20237;-93
2022/01/20 14:05:44;;;;;;;0.80;0.80;;;10.90;99.90;;;;;;4985255;28;20273;-94
2022/01/20 14:08:17;;;;;;;1.97;1.40;;;10.90;99.90;;;;;;5016248;28;20245;-94
2022/01/20 14:10:49;;;;;;;0.80;0.80;;;10.90;99.90;;;;;;5016740;28;20233;-92
2022/01/20 14:13:25;;;;;;;2.17;1.20;;;10.90;99.90;;;;;;5016933;28;20201;-94
2022/01/20 14:15:57;;;;;;;1.90;0.70;;;10.90;99.90;;;;;;5016755;28;20205;-93
2022/01/20 14:18:33;;;;;;;0.87;0.73;;;10.90;99.90;;;;;;5016477;28;20240;-93
2022/01/20 14:21:05;;;;;;;0.90;0.80;;;10.90;99.90;;;;;;5018645;28;20213;-92
2022/01/20 14:23:38;;;;;;;0.83;0.83;;;10.90;99.90;;;;;;5017140;28;20236;-91
2022/01/20 14:26:12;;;;;;;3.63;3.43;;;10.90;99.90;;;;;;5016750;28;20213;-93
2022/01/20 14:28:43;;;;;;;0.67;0.67;;;10.90;99.90;;;;;;5016206;28;20283;-92